Search for airport 
image banner adimage banner ad
image banner ad

SBAR - Santa Maria

Located in Aracaju, Brazil

ICAO - SBAR, IATA - AJU

Data provided by Airmate  

General information

Coordinates: S10°59'7" W37°4'24"
Elevation is 22 feet MSL.
Magnetic variation is -23° East
View others Airports in Sergipe

Operational data

Open for public use
Current time UTC:
Current local time:
Weather
METAR: SBAR 262100Z 09011KT 9999 FEW016 BKN100 28/23 Q1009
TAF: TAF SBAR 261547Z 2618/2718 09018KT 9999 SCT017 TN26/2708Z TX30/2716Z BECMG 2701/2703 05008KT BECMG 2712/2714 09018KT RMK PHQ
View NOTAMs / SUP AIP / TFR affecting this airport [VIEW]
Communications frequencies: [VIEW]

Runways:

RWY identifierQFULength (ft)Width (ft)SurfaceLDA (ft)
1292°7218148
30272°7218148

Airport contact information

Address: Aracaju Brazil

Other aviation service providers

Aviation club (not for profit)

Aeroclube De Sergipe

Aeroclube De Sergipe
+55793241-3646

Satellite view of SBAR